x

Cal Poly Pier, Ca (cpxc1) Weather Station

8:30pm - Sun 22nd Oct 2017 All times are PDT. -7 hours from GMT.

  • Wind
    6mph, 9mph gusts
  • Air Temp 76°f
  • Sea Pressure 1020.8mb
  • Cal Poly Pier, Ca
  • Cal Poly Pier, Ca

More Historic Weather Station data

Upgrade to MSW Pro to gain access to the past 30 days of data for over 8000 Wavebouys and Weather Stations around the globe.

Join

Comparision Forecast

View Surf forecast
   
Sun 10/22 8:30pm 6 9 mph 1020.8mb 76f
8:20pm 6 8 mph 1020.8mb 76f
8:08pm 6 8 mph 1020.6mb 76f
7:58pm 6 10 mph 1020.6mb 76f
7:48pm 7 10 mph 1020.6mb 76f
7:38pm 11 18 mph 1020.5mb 76f
7:28pm 8 11 mph 1020.5mb 76f
7:18pm 10 15 mph 1020.5mb 77f
7:08pm 11 15 mph 1020.3mb 77f
6:58pm 8 14 mph 1020.5mb 77f
6:48pm 13 18 mph 1020.5mb 77f
6:38pm 13 17 mph 1020.5mb 77f
6:28pm 16 21 mph 1020.3mb 77f
6:18pm 11 16 mph 1020.3mb 77f
6:08pm 15 20 mph 1020.1mb 77f
5:56pm 16 21 mph 1020mb 78f
5:46pm 20 25 mph 1020.1mb 78f
5:36pm 21 28 mph 1020mb 79f
5:26pm 20 29 mph 1020mb 79f
5:16pm 15 20 mph 1020mb 80f
5:06pm 11 17 mph 1020.1mb 80f
4:56pm 7 11 mph 1020.3mb 81f
4:46pm 10 15 mph 1020.3mb 81f
4:26pm 10 16 mph 1020.5mb 82f
4:16pm 11 15 mph 1020.5mb 81f
4:06pm 11 16 mph 1020.5mb 81f
3:54pm 18 22 mph 1020.3mb 81f
3:44pm 23 29 mph 1020.1mb 81f
3:34pm 20 24 mph 1020.3mb 81f
3:24pm 17 24 mph 1020.3mb 80f
3:14pm 23 29 mph 1020.3mb 80f
3:04pm 20 23 mph 1020.5mb 79f
2:54pm 21 24 mph 1020.5mb 79f
2:44pm 23 29 mph 1020.5mb 79f
2:34pm 25 33 mph 1020.5mb 78f
2:24pm 29 34 mph 1020.6mb 78f
2:14pm 23 28 mph 1021mb 78f
2:04pm 28 34 mph 1020.8mb 78f
1:52pm 23 28 mph 1021mb 78f
1:42pm 26 33 mph 1020.8mb 78f
1:32pm 25 31 mph 1021.2mb 77f
1:22pm 24 31 mph 1021.5mb 77f
1:12pm 24 31 mph 1021.7mb 77f
1:02pm 21 26 mph 1021.9mb 77f
12:52pm 18 24 mph 1022mb 77f
12:42pm 22 29 mph 1022.4mb 76f
12:32pm 18 22 mph 1022.4mb 76f
12:22pm 15 20 mph 1022.5mb 76f
12:12pm 17 25 mph 1022.5mb 75f
12:02pm 14 20 mph 1022.7mb 75f
11:52am 11 22 mph 1023.1mb 74f
11:40am 20 23 mph 1023.1mb 74f
11:30am 14 22 mph 1023.1mb 74f
11:20am 14 21 mph 1022.9mb 74f
11:10am 17 21 mph 1022.9mb 73f
11:00am 17 22 mph 1023.1mb 73f
10:50am 14 21 mph 1023.1mb 73f
10:40am 14 18 mph 1023.2mb 72f
10:30am 13 15 mph 1023.2mb 72f
10:20am 11 15 mph 1023.2mb 71f
10:10am 11 15 mph 1023.4mb 71f
10:00am 6 8 mph 1023.4mb 71f
9:50am 8 15 mph 1023.4mb 71f
9:38am 6 8 mph 1023.4mb 70f
9:28am 9 13 mph 1023.2mb 70f
9:18am 10 15 mph 1023.2mb 69f
9:08am 11 16 mph 1023.1mb 69f
8:58am 7 8 mph 1023.1mb 69f
8:48am 5 7 mph 1023.2mb 69f
8:38am 7 8 mph 1023.1mb 68f
8:28am 6 8 mph 1023.1mb 67f
8:18am 5 8 mph 1022.9mb 67f
8:08am 8 14 mph 1022.9mb 67f
7:58am 8 13 mph 1022.7mb 67f
7:48am 13 16 mph 1022.7mb 67f
7:36am 16 21 mph 1022.7mb 67f
7:26am 15 21 mph 1022.5mb 67f
7:16am 18 22 mph 1022.5mb 67f
7:06am 20 29 mph 1022.2mb 67f
6:56am 18 22 mph 1022.2mb 67f
6:46am 21 29 mph 1022.2mb 67f
6:36am 24 29 mph 1022.2mb 67f
6:26am 29 38 mph 1021.7mb 67f
6:16am 26 31 mph 1022mb 67f
6:06am 29 38 mph 1021.5mb 67f
5:56am 26 32 mph 1021.5mb 67f
5:46am 23 34 mph 1021.5mb 67f
5:36am 24 33 mph 1022mb 67f
5:24am 23 30 mph 1022.2mb 67f
5:14am 25 32 mph 1021.9mb 67f
5:04am 24 31 mph 1021.9mb 67f
4:54am 25 34 mph 1021.9mb 67f
4:44am 20 26 mph 1021.9mb 67f
4:34am 13 17 mph 1022.5mb 67f
4:24am 9 17 mph 1022.5mb 67f
4:14am 6 10 mph 1022.7mb 67f
4:04am 13 21 mph 1022.4mb 67f
3:54am 5 10 mph 1022.5mb 67f
3:44am 7 13 mph 1022.7mb 67f
3:34am 11 17 mph 1022.7mb 67f
3:24am 11 21 mph 1022.7mb 67f
3:12am 13 18 mph 1022.9mb 68f
3:02am 10 15 mph 1022.9mb 67f
2:52am 6 10 mph 1022.9mb 67f
2:42am 13 21 mph 1022.7mb 67f
2:32am 9 14 mph 1022.7mb 67f
2:22am 10 14 mph 1022.9mb 67f
2:12am 5 11 mph 1023.1mb 67f
2:02am 18 25 mph 1023.1mb 67f
1:52am 15 21 mph 1022.7mb 68f
1:42am 20 26 mph 1022.2mb 68f
1:32am 21 29 mph 1022.5mb 68f
1:22am 23 30 mph 1022.5mb 68f
1:10am 21 28 mph 1022.4mb 68f
1:00am 20 28 mph 1022.7mb 67f
12:50am 21 24 mph 1022.7mb 68f
12:40am 20 22 mph 1022.7mb 68f
12:30am 17 21 mph 1022.9mb 68f
12:20am 13 17 mph 1023.2mb 67f
12:10am 16 18 mph 1023.4mb 68f
12:00am 17 23 mph 1023.6mb 68f
Sat 10/21 11:48pm 18 23 mph 1023.6mb 69f
11:38pm 15 22 mph 1023.6mb 68f
11:28pm 14 17 mph 1023.8mb 68f
11:18pm 11 14 mph 1023.8mb 68f
11:08pm 11 15 mph 1023.8mb 68f
10:58pm 11 14 mph 1023.8mb 68f
10:48pm 14 17 mph 1023.6mb 68f
10:38pm 16 22 mph 1023.6mb 68f
10:28pm 17 22 mph 1023.4mb 68f
10:18pm 13 16 mph 1023.4mb 68f
10:08pm 8 10 mph 1023.6mb 67f
9:58pm 11 15 mph 1023.4mb 68f
9:48pm 8 11 mph 1023.4mb 68f
9:36pm 7 10 mph 1023.4mb 68f
9:26pm 8 13 mph 1023.2mb 69f
9:16pm 9 11 mph 1023.2mb 69f
9:06pm 7 14 mph 1023.2mb 69f
8:56pm 8 11 mph 1023.1mb 69f
8:46pm 11 15 mph 1023.1mb 69f
8:36pm 10 15 mph 1022.9mb 69f
8:26pm 3 5 mph 1022.9mb 68f
8:16pm 2 3 mph 1022.9mb 68f
8:06pm 2 3 mph 1022.7mb 68f
7:56pm 2 3 mph 1022.5mb 68f
7:46pm 5 7 mph 1022.4mb 69f
7:36pm 5 6 mph 1022.4mb 68f
7:24pm 6 9 mph 1022.4mb 69f
7:14pm 7 10 mph 1022.2mb 68f
7:04pm 6 9 mph 1022mb 67f
6:54pm 9 11 mph 1021.9mb 67f
6:44pm 9 11 mph 1021.9mb 67f
6:34pm 10 13 mph 1021.7mb 67f
6:24pm 13 15 mph 1021.5mb 67f
6:14pm 7 10 mph 1021.5mb 68f
6:04pm 3 6 mph 1021.3mb 67f
5:54pm 10 14 mph 1021.3mb 67f
5:44pm 13 15 mph 1021.3mb 67f
5:34pm 9 13 mph 1021mb 67f
5:24pm 15 17 mph 1021.2mb 67f
5:12pm 14 17 mph 1021.2mb 69f
5:02pm 8 11 mph 1021mb 71f
4:52pm 8 11 mph 1020.8mb 72f
4:42pm 11 17 mph 1020.8mb 72f
4:22pm 10 15 mph 1020.8mb 72f
4:10pm 15 30 mph 1020.8mb 73f
4:00pm 21 28 mph 1020.5mb 73f
3:50pm 11 18 mph 1020.6mb 72f
3:40pm 20 28 mph 1020.6mb 72f
3:30pm 15 20 mph 1020.6mb 72f
3:20pm 13 21 mph 1020.6mb 72f
3:10pm 18 24 mph 1020.6mb 71f
3:00pm 21 29 mph 1020.8mb 71f
2:50pm 24 31 mph 1020.6mb 71f
2:40pm 18 24 mph 1020.5mb 71f
2:30pm 21 26 mph 1020.5mb 71f
2:20pm 11 16 mph 1020.8mb 71f
2:08pm 14 20 mph 1021mb 71f
1:58pm 11 15 mph 1021.2mb 71f
1:48pm 15 22 mph 1021.3mb 71f
1:38pm 15 21 mph 1021.2mb 70f
1:28pm 10 14 mph 1021.2mb 70f
1:18pm 10 21 mph 1021.3mb 70f
1:08pm 10 14 mph 1021.2mb 69f
12:58pm 11 18 mph 1021.3mb 69f
12:48pm 13 18 mph 1021.5mb 69f
12:38pm 10 17 mph 1021.7mb 69f
12:28pm 10 14 mph 1021.5mb 68f
12:18pm 15 21 mph 1021.7mb 68f
12:06pm 15 25 mph 1021.7mb 67f
11:56am 13 18 mph 1021.7mb 67f
11:46am 11 15 mph 1022.2mb 67f
11:36am 10 15 mph 1022mb 67f
11:26am 8 14 mph 1022.4mb 66f
11:16am 6 10 mph 1022.5mb 66f
11:06am 8 16 mph 1022.5mb 65f
10:56am 8 14 mph 1022.7mb 65f
10:46am 13 17 mph 1022.7mb 64f
10:36am 14 17 mph 1022.7mb 64f
10:26am 10 18 mph 1022.5mb 63f
10:14am 10 17 mph 1022.5mb 63f
10:04am 7 11 mph 1022.7mb 63f
9:54am 5 7 mph 1022.7mb 62f
9:44am 5 7 mph 1022.7mb 62f
9:34am 5 8 mph 1022.7mb 61f
9:24am 11 18 mph 1022.4mb 60f
9:14am 5 8 mph 1022.4mb 59f
9:04am 7 11 mph 1022.4mb 58f
8:54am 13 17 mph 1022.2mb 58f
8:44am 9 14 mph 1022.2mb 57f
8:34am 8 11 mph 1022.2mb 57f
8:24am 11 17 mph 1022.2mb 57f
8:14am 14 20 mph 1021.9mb 57f
8:02am 15 22 mph 1021.9mb 57f
7:52am 15 18 mph 1021.7mb 57f
7:42am 15 22 mph 1021.5mb 57f
7:32am 15 18 mph 1021.5mb 56f
7:22am 6 11 mph 1021.7mb 56f
7:12am 8 13 mph 1021.7mb 56f
7:02am 7 11 mph 1021.7mb 56f
6:52am 6 10 mph 1021.7mb 56f
6:42am 3 8 mph 1021.7mb 56f
6:32am 5 7 mph 1021.5mb 56f
6:22am 7 9 mph 1021.5mb 56f
6:12am 10 15 mph 1021.5mb 56f
6:00am 7 10 mph 1021.3mb 56f
5:50am 2 5 mph 1021.5mb 56f
5:40am 7 11 mph 1021.2mb 56f
5:30am 6 10 mph 1021.3mb 56f
5:20am 6 10 mph 1021.2mb 56f
5:10am 8 10 mph 1021.2mb 56f
5:00am 5 8 mph 1021mb 55f
4:50am 7 10 mph 1020.8mb 56f
4:40am 2 2 mph 1020.8mb 55f
4:30am 3 5 mph 1020.6mb 56f
4:20am 3 6 mph 1020.6mb 55f
4:10am  -  1 mph 1020.6mb 56f
4:00am 3 5 mph 1020.6mb 57f
3:48am 5 8 mph 1020.8mb 57f
3:38am 2 5 mph 1020.8mb 57f
3:28am 2 5 mph 1021mb 57f
3:18am  -  2 mph 1021mb 57f
3:08am 3 6 mph 1021.2mb 57f
2:58am 6 13 mph 1021mb 58f
2:48am 3 6 mph 1021mb 58f
2:38am 6 10 mph 1020.8mb 58f
2:28am 9 14 mph 1020.6mb 58f
2:18am 3 8 mph 1020.6mb 58f
2:08am 11 16 mph 1020.8mb 59f
1:58am 6 9 mph 1020.6mb 58f
1:48am 5 8 mph 1020.6mb 58f
1:36am 3 6 mph 1020.6mb 59f
1:26am 3 7 mph 1020.6mb 59f
1:16am 9 16 mph 1020.6mb 59f
1:06am 2 5 mph 1020.3mb 58f
12:56am 2 7 mph 1020.5mb 58f
12:46am 6 11 mph 1020.5mb 59f
12:36am 5 10 mph 1020.3mb 59f
12:26am 2 5 mph 1020.3mb 59f
12:16am 6 10 mph 1020.3mb 59f
12:06am 2 5 mph 1020.3mb 59f
Fri 10/20 11:56pm 8 14 mph 1020.1mb 59f
11:46pm 5 8 mph 1020.1mb 60f
11:36pm 3 7 mph 1020.1mb 60f
11:24pm 5 7 mph 1020mb 60f
11:14pm 5 8 mph 1019.6mb 60f
11:04pm 8 11 mph 1019.8mb 60f
10:54pm 7 9 mph 1019.6mb 60f
10:44pm 6 10 mph 1019.8mb 60f
10:34pm  -  3 mph 1019.6mb 60f
10:24pm 2 6 mph 1019.6mb 60f
10:14pm 7 9 mph 1019.4mb 60f
10:04pm 7 9 mph 1019.4mb 61f
9:54pm 3 6 mph 1019.4mb 61f
9:44pm 6 7 mph 1019.4mb 60f
9:34pm 9 11 mph 1019.3mb 60f
9:22pm 9 11 mph 1019.3mb 60f
9:12pm 13 15 mph 1018.9mb 59f
9:02pm 11 15 mph 1018.9mb 60f
8:52pm 13 15 mph 1018.7mb 60f
8:42pm 1 3 mph 1018.7mb 61f
8:32pm 8 14 mph 1018.6mb 61f
8:22pm 9 15 mph 1018.6mb 61f
8:12pm 10 17 mph 1018.2mb 60f
8:02pm 11 17 mph 1018.2mb 60f
7:52pm 14 21 mph 1018.1mb 60f
7:42pm 17 23 mph 1018.1mb 60f
7:32pm 18 25 mph 1017.7mb 60f
7:22pm 17 22 mph 1017.5mb 59f
7:10pm 21 24 mph 1017.5mb 60f
7:00pm 23 29 mph 1017.4mb 59f
6:50pm 25 32 mph 1017.2mb 60f
6:40pm 28 36 mph 1017mb 60f
6:30pm 25 32 mph 1016.8mb 60f
6:20pm 25 31 mph 1017mb 60f
6:10pm 26 32 mph 1016.8mb 60f
6:00pm 26 33 mph 1016.7mb 60f
5:50pm 24 29 mph 1016.7mb 61f
5:40pm 25 31 mph 1016.7mb 61f
5:30pm 26 33 mph 1016.3mb 61f
5:20pm 29 34 mph 1016.8mb 62f
5:10pm 25 30 mph 1016.5mb 62f
4:58pm 26 31 mph 1016.8mb 62f
4:48pm 23 29 mph 1016.5mb 62f
4:28pm 26 34 mph 1016.8mb 62f
4:18pm 29 37 mph 1016.7mb 62f
4:08pm 29 34 mph 1017mb 62f
3:58pm 26 31 mph 1016.7mb 63f
3:48pm 28 33 mph 1016.3mb 63f
3:38pm 24 29 mph 1016.2mb 63f
3:28pm 25 31 mph 1016.5mb 63f
3:18pm 26 31 mph 1016.7mb 63f
3:08pm 22 28 mph 1016.5mb 64f
2:56pm 24 29 mph 1016.5mb 64f
2:46pm 23 28 mph 1016.3mb 64f
2:36pm 22 26 mph 1016.7mb 64f
2:26pm 20 24 mph 1016.7mb 64f
2:16pm 22 25 mph 1016.8mb 64f
2:06pm 20 23 mph 1017mb 64f
1:56pm 17 20 mph 1016.8mb 64f
1:46pm 20 23 mph 1017.2mb 63f
1:36pm 22 25 mph 1017.2mb 64f
1:26pm 20 24 mph 1017.4mb 63f
1:16pm 16 21 mph 1017.5mb 64f
1:06pm 16 21 mph 1017.5mb 64f
12:54pm 15 22 mph 1017.9mb 64f
12:44pm 11 15 mph 1018.1mb 64f
12:34pm 14 17 mph 1017.9mb 64f
12:24pm 13 17 mph 1018.4mb 64f
12:14pm 14 18 mph 1018.1mb 65f
12:04pm 17 21 mph 1017.9mb 64f
11:54am 16 21 mph 1017.9mb 64f
11:44am 17 24 mph 1017.9mb 64f
11:34am 11 20 mph 1017.9mb 64f
11:24am 11 18 mph 1017.7mb 64f
11:14am 11 20 mph 1017.9mb 64f
11:04am 10 15 mph 1017.7mb 64f
10:52am 9 13 mph 1017.9mb 62f
10:42am 3 8 mph 1017.9mb 64f
10:32am 1 3 mph 1017.9mb 64f
10:22am 3 10 mph 1018.1mb 63f
10:12am 3 6 mph 1018.2mb 62f
10:02am 3 8 mph 1018.2mb 62f
9:52am 7 17 mph 1018.2mb 61f
9:12am 3 5 mph 1017.9mb 61f
9:02am 1 6 mph 1017.9mb 60f
8:50am 3 5 mph 1017.9mb 60f
7:50am 6 7 mph 1017mb 58f
7:30am 10 13 mph 1016.5mb 58f
7:20am 13 15 mph 1016.2mb 58f
7:10am 13 14 mph 1015.8mb 58f
7:00am 11 17 mph 1016.2mb 58f
6:48am 13 16 mph 1016.3mb 58f
6:38am 9 11 mph 1016.3mb 59f
6:28am 5 6 mph 1016.2mb 59f
6:18am 2 3 mph 1016.3mb 58f
6:08am 5 6 mph 1016.3mb 58f
5:58am 8 10 mph 1016.5mb 58f
5:48am 10 13 mph 1016.7mb 58f
5:38am 8 11 mph 1016.7mb 58f
5:28am 7 8 mph 1016.7mb 58f
5:18am  -  1 mph 1016.3mb 58f
5:08am 1 2 mph 1016.2mb 58f
4:58am 1 2 mph 1016mb 59f
4:48am  -  1 mph 1016mb 59f
4:36am  -  1 mph 1015.8mb 59f
4:26am  -  1 mph 1015.6mb 59f
4:16am  -  1 mph 1015.6mb 59f
4:06am  -  1 mph 1015.6mb 59f
3:56am  -  0 mph 1015.6mb 59f
3:46am  -  1 mph 1015.6mb 59f
3:36am 1 2 mph 1015.6mb 59f
3:26am 1 2 mph 1015.6mb 59f
3:16am 2 3 mph 1015.6mb 59f
3:06am 3 5 mph 1015.8mb 60f
2:56am 5 6 mph 1016mb 60f
2:46am 5 6 mph 1016.3mb 60f
2:36am 3 5 mph 1016.3mb 60f
2:24am 3 5 mph 1016mb 60f
2:14am 3 6 mph 1016mb 60f
2:04am 5 6 mph 1015.6mb 60f
1:54am 3 5 mph 1015.6mb 60f
1:44am 2 2 mph 1015.8mb 60f
1:34am 2 2 mph 1015.6mb 60f
1:24am  -  1 mph 1016mb 60f
1:14am  -  2 mph 1016.2mb 60f
1:04am 1 2 mph 1016mb 60f
12:54am 2 5 mph 1016mb 60f
12:44am 6 6 mph 1016mb 59f
12:34am 5 7 mph 1016.2mb 59f
12:24am 7 8 mph 1016.2mb 59f
12:12am 7 8 mph 1016.3mb 59f
12:02am 9 11 mph 1016.5mb 59f
Thu 10/19 11:52pm 11 14 mph 1016.5mb 59f
11:42pm 10 13 mph 1016.5mb 59f
11:32pm 5 6 mph 1016.5mb 59f
11:22pm 8 10 mph 1016.5mb 60f
11:12pm 5 6 mph 1016.5mb 60f
11:02pm 3 5 mph 1016.5mb 60f
10:52pm 5 6 mph 1016.3mb 60f
10:42pm 6 7 mph 1016.2mb 60f
10:32pm 5 6 mph 1016.2mb 60f
10:22pm 3 6 mph 1016.2mb 60f
10:12pm  -  1 mph 1016.2mb 60f
10:00pm 2 3 mph 1016mb 60f
9:50pm 1 2 mph 1016mb 60f
9:40pm  -  2 mph 1015.8mb 60f
9:30pm  -  1 mph 1015.8mb 60f
9:20pm  -  1 mph 1015.6mb 59f
9:10pm  -  1 mph 1015.6mb 60f
9:00pm  -  1 mph 1015.3mb 60f
8:50pm 3 6 mph 1015.3mb 60f
8:40pm 7 10 mph 1015.3mb 60f
8:30pm 2 5 mph 1015.3mb 60f
8:20pm 6 7 mph 1015.1mb 60f
8:10pm 2 5 mph 1014.9mb 60f
8:00pm  -  0 mph 1015.1mb 60f
7:48pm 1 2 mph 1014.9mb 61f
7:38pm 6 7 mph 1014.8mb 61f
7:28pm 6 8 mph 1014.6mb 61f
7:18pm 5 6 mph 1014.8mb 62f
7:08pm 2 3 mph 1014.8mb 62f
6:58pm 5 6 mph 1014.4mb 63f
6:48pm 3 5 mph 1014.4mb 64f
6:38pm 6 9 mph 1014.4mb 64f
6:28pm  -  2 mph 1014.6mb 64f
6:18pm 7 8 mph 1014.1mb 64f
6:08pm 9 10 mph 1014.1mb 64f
5:58pm 10 14 mph 1014.1mb 64f
5:48pm 8 13 mph 1014.1mb 65f
5:36pm 10 13 mph 1013.9mb 65f
5:26pm 9 11 mph 1013.7mb 65f
5:16pm 8 10 mph 1013.9mb 65f
5:06pm 6 7 mph 1014.1mb 66f
4:56pm 8 10 mph 1014.1mb 66f
4:46pm 6 10 mph 1014.1mb 66f
4:26pm 2 3 mph 1014.1mb 69f
4:16pm 5 8 mph 1014.3mb 68f
4:06pm 2 5 mph 1014.3mb 68f
3:56pm 7 10 mph 1014.4mb 67f
3:46pm 1 2 mph 1014.4mb 68f
3:34pm 10 15 mph 1014.4mb 66f
3:24pm 15 18 mph 1014.3mb 65f
3:14pm 16 21 mph 1014.1mb 64f
3:04pm 18 21 mph 1013.9mb 65f
2:54pm 14 17 mph 1013.9mb 67f
2:44pm 13 16 mph 1014.1mb 66f
2:34pm 10 14 mph 1014.1mb 67f
2:24pm 11 14 mph 1014.1mb 68f
2:14pm 15 18 mph 1014.1mb 66f
2:04pm 17 21 mph 1014.1mb 64f
1:54pm 21 24 mph 1014.4mb 61f
1:42pm 17 25 mph 1014.4mb 62f
1:32pm 2 5 mph 1014.6mb 63f
1:22pm 9 14 mph 1014.8mb 62f
1:12pm 15 18 mph 1014.9mb 60f
1:02pm 16 18 mph 1015.3mb 61f
12:52pm 6 10 mph 1015.3mb 63f
12:42pm 6 8 mph 1015.5mb 63f
12:32pm 5 7 mph 1015.5mb 62f
12:22pm 6 8 mph 1015.6mb 62f
12:12pm 3 5 mph 1015.8mb 62f
12:02pm 7 8 mph 1016mb 60f
11:52am 7 10 mph 1016.2mb 58f
11:42am 10 11 mph 1016.3mb 58f
11:30am 3 5 mph 1016.2mb 58f
11:20am 5 6 mph 1016.2mb 57f
11:10am 7 8 mph 1016.2mb 57f
11:00am 10 11 mph 1016.2mb 57f
10:50am 10 11 mph 1016.2mb 57f
10:40am 3 5 mph 1016.3mb 59f
10:30am 2 5 mph 1016.3mb 58f
10:20am 7 10 mph 1016.3mb 57f
10:10am 5 6 mph 1016.3mb 57f
10:00am 5 6 mph 1016.5mb 56f
9:50am 3 6 mph 1016.7mb 56f
9:40am 3 6 mph 1016.7mb 56f
9:28am 3 5 mph 1016.5mb 56f
9:18am 2 5 mph 1016.5mb 55f
9:08am 3 5 mph 1016.5mb 55f
8:58am  -  2 mph 1016.3mb 55f
8:48am 5 7 mph 1016.3mb 55f
8:38am 5 6 mph 1016.3mb 55f
8:28am 6 8 mph 1016.3mb 55f
8:18am 2 3 mph 1016.2mb 53f
8:08am 2 3 mph 1016mb 53f
7:58am 3 6 mph 1015.5mb 53f
7:48am 5 6 mph 1015.3mb 53f
7:38am 6 8 mph 1015.5mb 53f
7:26am 9 11 mph 1015.6mb 52f
7:16am 9 10 mph 1015.5mb 53f
7:06am 6 8 mph 1015.6mb 53f
6:56am 3 5 mph 1016mb 53f
6:46am 3 5 mph 1016mb 54f
6:36am 5 6 mph 1015.8mb 54f
6:26am 3 5 mph 1015.8mb 54f
6:16am 3 5 mph 1015.6mb 54f
6:06am 2 5 mph 1015.6mb 55f
5:56am 6 8 mph 1015.3mb 55f
5:46am 7 10 mph 1015.3mb 55f
5:36am 6 8 mph 1015.1mb 54f
5:26am 10 11 mph 1015.1mb 53f
5:14am 6 8 mph 1014.9mb 52f
5:04am 6 8 mph 1014.9mb 52f
4:54am 5 8 mph 1014.6mb 52f
4:44am 6 7 mph 1014.6mb 52f
4:34am 3 6 mph 1014.8mb 52f
4:24am 3 5 mph 1014.8mb 52f
4:14am 5 6 mph 1014.9mb 52f